sensor_id;sensor_type;location;lat;lon;timestamp;pressure;altitude;pressure_sealevel;temperature;humidity
62436;BME280;48480;50.252;18.848;2023-02-12T00:02:08;99930.62;;;4.93;85.07
62436;BME280;48480;50.252;18.848;2023-02-12T00:04:34;99928.87;;;4.94;84.96
62436;BME280;48480;50.252;18.848;2023-02-12T00:06:59;99935.93;;;4.93;84.81
62436;BME280;48480;50.252;18.848;2023-02-12T00:09:25;99942.42;;;4.93;85.03
62436;BME280;48480;50.252;18.848;2023-02-12T00:11:51;99942.81;;;4.97;85.17
62436;BME280;48480;50.252;18.848;2023-02-12T00:14:17;99945.02;;;5.02;85.17
62436;BME280;48480;50.252;18.848;2023-02-12T00:16:43;99940.70;;;5.09;84.78
62436;BME280;48480;50.252;18.848;2023-02-12T00:19:09;99944.57;;;5.04;84.38
62436;BME280;48480;50.252;18.848;2023-02-12T00:21:35;99936.30;;;4.93;84.53
62436;BME280;48480;50.252;18.848;2023-02-12T00:24:01;99942.94;;;4.96;84.62
62436;BME280;48480;50.252;18.848;2023-02-12T00:26:27;99942.72;;;4.92;84.60
62436;BME280;48480;50.252;18.848;2023-02-12T00:28:53;99942.82;;;4.88;84.78
62436;BME280;48480;50.252;18.848;2023-02-12T00:31:24;99947.37;;;4.86;84.96
62436;BME280;48480;50.252;18.848;2023-02-12T00:33:51;99950.30;;;4.86;84.97
62436;BME280;48480;50.252;18.848;2023-02-12T00:36:20;99952.95;;;4.84;85.12
62436;BME280;48480;50.252;18.848;2023-02-12T00:38:46;99954.63;;;4.87;85.24
62436;BME280;48480;50.252;18.848;2023-02-12T00:41:12;99953.89;;;4.88;84.97
62436;BME280;48480;50.252;18.848;2023-02-12T00:43:38;99951.58;;;4.90;85.13
62436;BME280;48480;50.252;18.848;2023-02-12T00:46:04;99945.63;;;4.91;84.90
62436;BME280;48480;50.252;18.848;2023-02-12T00:48:32;99953.46;;;4.88;84.85
62436;BME280;48480;50.252;18.848;2023-02-12T00:50:58;99954.24;;;4.88;85.07
62436;BME280;48480;50.252;18.848;2023-02-12T00:53:23;99956.83;;;4.86;84.92
62436;BME280;48480;50.252;18.848;2023-02-12T00:55:49;99959.41;;;4.87;85.25
62436;BME280;48480;50.252;18.848;2023-02-12T00:58:14;99961.50;;;4.92;85.27
62436;BME280;48480;50.252;18.848;2023-02-12T01:00:42;99962.98;;;4.92;84.84
62436;BME280;48480;50.252;18.848;2023-02-12T01:03:08;99965.79;;;4.94;85.12
62436;BME280;48480;50.252;18.848;2023-02-12T01:05:34;99966.59;;;4.97;84.95
62436;BME280;48480;50.252;18.848;2023-02-12T01:07:59;99965.16;;;4.98;85.00
62436;BME280;48480;50.252;18.848;2023-02-12T01:10:25;99965.09;;;5.02;84.96
62436;BME280;48480;50.252;18.848;2023-02-12T01:12:51;99949.52;;;4.94;84.79
62436;BME280;48480;50.252;18.848;2023-02-12T01:15:17;99966.42;;;5.07;84.74
62436;BME280;48480;50.252;18.848;2023-02-12T01:17:44;99970.45;;;5.09;84.65
62436;BME280;48480;50.252;18.848;2023-02-12T01:20:13;99972.86;;;5.11;84.68
62436;BME280;48480;50.252;18.848;2023-02-12T01:22:41;99963.69;;;5.09;84.56
62436;BME280;48480;50.252;18.848;2023-02-12T01:25:08;99975.59;;;5.18;84.44
62436;BME280;48480;50.252;18.848;2023-02-12T01:27:35;99979.42;;;5.18;84.28
62436;BME280;48480;50.252;18.848;2023-02-12T01:30:01;99978.06;;;5.17;84.18
62436;BME280;48480;50.252;18.848;2023-02-12T01:32:26;99981.00;;;5.17;84.30
62436;BME280;48480;50.252;18.848;2023-02-12T01:34:52;99981.73;;;5.19;84.34
62436;BME280;48480;50.252;18.848;2023-02-12T01:37:17;99990.59;;;5.18;84.13
62436;BME280;48480;50.252;18.848;2023-02-12T01:39:43;99991.34;;;5.18;84.39
62436;BME280;48480;50.252;18.848;2023-02-12T01:42:15;99992.48;;;5.20;84.27
62436;BME280;48480;50.252;18.848;2023-02-12T01:44:45;99995.97;;;5.18;84.13
62436;BME280;48480;50.252;18.848;2023-02-12T01:47:30;99998.15;;;5.19;84.21
62436;BME280;48480;50.252;18.848;2023-02-12T01:49:55;99997.63;;;5.19;84.15
62436;BME280;48480;50.252;18.848;2023-02-12T01:52:34;99994.95;;;5.20;84.10
62436;BME280;48480;50.252;18.848;2023-02-12T01:55:04;99997.43;;;5.20;84.04
62436;BME280;48480;50.252;18.848;2023-02-12T01:57:32;99998.15;;;5.19;84.09
62436;BME280;48480;50.252;18.848;2023-02-12T02:00:01;100003.11;;;5.19;84.05
62436;BME280;48480;50.252;18.848;2023-02-12T02:02:27;100015.55;;;5.19;84.14
62436;BME280;48480;50.252;18.848;2023-02-12T02:04:59;100015.55;;;5.21;84.13
62436;BME280;48480;50.252;18.848;2023-02-12T02:07:25;100005.03;;;5.19;84.06
62436;BME280;48480;50.252;18.848;2023-02-12T02:09:51;100009.40;;;5.19;84.01
62436;BME280;48480;50.252;18.848;2023-02-12T02:12:17;99998.04;;;5.11;84.01
62436;BME280;48480;50.252;18.848;2023-02-12T02:15:04;100014.19;;;5.23;84.08
62436;BME280;48480;50.252;18.848;2023-02-12T02:20:41;100021.23;;;5.23;83.94
62436;BME280;48480;50.252;18.848;2023-02-12T02:23:41;100030.33;;;5.28;83.77
62436;BME280;48480;50.252;18.848;2023-02-12T02:44:23;100051.16;;;5.32;83.66
62436;BME280;48480;50.252;18.848;2023-02-12T02:46:52;100057.46;;;5.31;83.68
62436;BME280;48480;50.252;18.848;2023-02-12T02:49:36;100060.73;;;5.25;83.55
62436;BME280;48480;50.252;18.848;2023-02-12T02:52:10;100068.18;;;5.28;83.65
62436;BME280;48480;50.252;18.848;2023-02-12T02:54:47;100065.87;;;5.27;83.83
62436;BME280;48480;50.252;18.848;2023-02-12T02:57:35;100058.94;;;5.26;83.70
62436;BME280;48480;50.252;18.848;2023-02-12T03:00:13;100062.16;;;5.24;83.78
62436;BME280;48480;50.252;18.848;2023-02-12T03:02:45;100064.77;;;5.25;83.91
62436;BME280;48480;50.252;18.848;2023-02-12T03:05:23;100069.05;;;5.26;83.74
62436;BME280;48480;50.252;18.848;2023-02-12T03:07:53;100076.46;;;5.27;83.62
62436;BME280;48480;50.252;18.848;2023-02-12T03:10:30;100080.93;;;5.27;83.66
62436;BME280;48480;50.252;18.848;2023-02-12T03:16:08;100089.53;;;5.23;83.50
62436;BME280;48480;50.252;18.848;2023-02-12T03:18:51;100095.45;;;5.20;83.64
62436;BME280;48480;50.252;18.848;2023-02-12T03:21:25;100104.57;;;5.21;83.63
62436;BME280;48480;50.252;18.848;2023-02-12T03:24:28;100109.79;;;5.22;83.52
62436;BME280;48480;50.252;18.848;2023-02-12T03:27:04;100117.81;;;5.21;83.52
62436;BME280;48480;50.252;18.848;2023-02-12T03:29:31;100119.67;;;5.21;83.29
62436;BME280;48480;50.252;18.848;2023-02-12T03:34:56;100123.17;;;5.21;83.20
62436;BME280;48480;50.252;18.848;2023-02-12T03:37:31;100115.73;;;5.15;83.17
62436;BME280;48480;50.252;18.848;2023-02-12T03:40:05;100130.11;;;5.21;83.10
62436;BME280;48480;50.252;18.848;2023-02-12T03:48:27;100159.45;;;5.17;83.12
62436;BME280;48480;50.252;18.848;2023-02-12T03:50:55;100159.98;;;5.17;83.09
62436;BME280;48480;50.252;18.848;2023-02-12T03:53:26;100161.08;;;5.18;83.04
62436;BME280;48480;50.252;18.848;2023-02-12T03:56:11;100161.36;;;5.17;83.12
62436;BME280;48480;50.252;18.848;2023-02-12T03:58:40;100162.71;;;5.18;83.03
62436;BME280;48480;50.252;18.848;2023-02-12T04:01:07;100168.59;;;5.16;82.98
62436;BME280;48480;50.252;18.848;2023-02-12T04:03:33;100171.51;;;5.16;82.96
62436;BME280;48480;50.252;18.848;2023-02-12T04:05:59;100173.55;;;5.17;82.94
62436;BME280;48480;50.252;18.848;2023-02-12T04:08:26;100176.02;;;5.16;82.77
62436;BME280;48480;50.252;18.848;2023-02-12T04:11:07;100180.11;;;5.12;82.75
62436;BME280;48480;50.252;18.848;2023-02-12T04:18:53;100202.55;;;5.08;82.80
62436;BME280;48480;50.252;18.848;2023-02-12T04:21:42;100190.69;;;5.03;82.88
62436;BME280;48480;50.252;18.848;2023-02-12T04:27:25;100200.64;;;5.09;82.59
62436;BME280;48480;50.252;18.848;2023-02-12T04:29:56;100203.79;;;5.10;82.56
62436;BME280;48480;50.252;18.848;2023-02-12T04:32:40;100202.79;;;5.10;82.56
62436;BME280;48480;50.252;18.848;2023-02-12T04:35:22;100209.73;;;5.10;82.63
62436;BME280;48480;50.252;18.848;2023-02-12T04:37:56;100213.66;;;5.08;82.45
62436;BME280;48480;50.252;18.848;2023-02-12T04:40:23;100219.48;;;5.07;82.48
62436;BME280;48480;50.252;18.848;2023-02-12T04:42:51;100223.35;;;5.06;82.57
62436;BME280;48480;50.252;18.848;2023-02-12T04:45:32;100216.96;;;5.01;82.42
62436;BME280;48480;50.252;18.848;2023-02-12T04:47:58;100225.06;;;5.07;82.42
62436;BME280;48480;50.252;18.848;2023-02-12T04:50:25;100223.63;;;5.06;82.31
62436;BME280;48480;50.252;18.848;2023-02-12T04:52:51;100219.57;;;5.01;82.17
62436;BME280;48480;50.252;18.848;2023-02-12T04:55:17;100232.20;;;5.04;82.09
62436;BME280;48480;50.252;18.848;2023-02-12T04:57:43;100232.51;;;5.01;81.86
62436;BME280;48480;50.252;18.848;2023-02-12T05:00:12;100236.88;;;4.97;81.96
62436;BME280;48480;50.252;18.848;2023-02-12T05:02:38;100248.08;;;4.93;82.04
62436;BME280;48480;50.252;18.848;2023-02-12T05:05:04;100255.08;;;4.89;81.89
62436;BME280;48480;50.252;18.848;2023-02-12T05:07:29;100263.58;;;4.86;82.13
62436;BME280;48480;50.252;18.848;2023-02-12T05:09:55;100261.84;;;4.84;82.22
62436;BME280;48480;50.252;18.848;2023-02-12T05:12:21;100262.97;;;4.85;82.15
62436;BME280;48480;50.252;18.848;2023-02-12T05:14:46;100262.23;;;4.83;82.14
62436;BME280;48480;50.252;18.848;2023-02-12T05:17:12;100262.52;;;4.82;82.03
62436;BME280;48480;50.252;18.848;2023-02-12T05:19:37;100261.93;;;4.81;82.08
62436;BME280;48480;50.252;18.848;2023-02-12T05:22:03;100264.10;;;4.81;82.12
62436;BME280;48480;50.252;18.848;2023-02-12T05:24:28;100268.64;;;4.79;82.04
62436;BME280;48480;50.252;18.848;2023-02-12T05:26:54;100272.23;;;4.79;82.02
62436;BME280;48480;50.252;18.848;2023-02-12T05:29:19;100273.65;;;4.78;82.00
62436;BME280;48480;50.252;18.848;2023-02-12T05:31:45;100279.66;;;4.75;81.79
62436;BME280;48480;50.252;18.848;2023-02-12T05:34:11;100283.66;;;4.71;81.89
62436;BME280;48480;50.252;18.848;2023-02-12T05:36:37;100287.50;;;4.69;82.03
62436;BME280;48480;50.252;18.848;2023-02-12T05:39:04;100290.66;;;4.68;81.91
62436;BME280;48480;50.252;18.848;2023-02-12T05:41:30;100288.19;;;4.66;81.96
62436;BME280;48480;50.252;18.848;2023-02-12T05:44:04;100291.64;;;4.64;81.74
62436;BME280;48480;50.252;18.848;2023-02-12T05:46:31;100297.05;;;4.63;81.63
62436;BME280;48480;50.252;18.848;2023-02-12T05:48:57;100304.46;;;4.60;81.73
62436;BME280;48480;50.252;18.848;2023-02-12T05:51:25;100305.71;;;4.56;81.68
62436;BME280;48480;50.252;18.848;2023-02-12T05:53:56;100313.77;;;4.56;81.85
62436;BME280;48480;50.252;18.848;2023-02-12T05:56:28;100315.35;;;4.55;81.86
62436;BME280;48480;50.252;18.848;2023-02-12T05:58:57;100320.73;;;4.55;81.95
62436;BME280;48480;50.252;18.848;2023-02-12T06:01:27;100324.29;;;4.53;81.89
62436;BME280;48480;50.252;18.848;2023-02-12T06:03:53;100331.86;;;4.50;82.00
62436;BME280;48480;50.252;18.848;2023-02-12T06:06:19;100333.62;;;4.47;82.07
62436;BME280;48480;50.252;18.848;2023-02-12T06:08:47;100336.81;;;4.47;82.15
62436;BME280;48480;50.252;18.848;2023-02-12T06:11:15;100341.10;;;4.47;82.26
62436;BME280;48480;50.252;18.848;2023-02-12T06:13:41;100344.59;;;4.49;82.29
62436;BME280;48480;50.252;18.848;2023-02-12T06:16:16;100351.44;;;4.50;82.30
62436;BME280;48480;50.252;18.848;2023-02-12T06:18:41;100358.21;;;4.51;82.30
62436;BME280;48480;50.252;18.848;2023-02-12T06:21:07;100364.32;;;4.53;82.41
62436;BME280;48480;50.252;18.848;2023-02-12T06:23:33;100366.19;;;4.51;82.24
62436;BME280;48480;50.252;18.848;2023-02-12T06:25:59;100373.36;;;4.55;82.28
62436;BME280;48480;50.252;18.848;2023-02-12T06:28:24;100372.89;;;4.56;82.30
62436;BME280;48480;50.252;18.848;2023-02-12T06:30:51;100375.54;;;4.58;82.16
62436;BME280;48480;50.252;18.848;2023-02-12T06:33:17;100380.46;;;4.57;82.14
62436;BME280;48480;50.252;18.848;2023-02-12T06:35:42;100383.13;;;4.55;82.25
62436;BME280;48480;50.252;18.848;2023-02-12T06:38:09;100394.30;;;4.58;82.23
62436;BME280;48480;50.252;18.848;2023-02-12T06:40:34;100391.33;;;4.60;82.08
62436;BME280;48480;50.252;18.848;2023-02-12T06:43:00;100391.42;;;4.57;81.84
62436;BME280;48480;50.252;18.848;2023-02-12T06:45:26;100389.73;;;4.55;81.98
62436;BME280;48480;50.252;18.848;2023-02-12T06:47:51;100398.64;;;4.55;81.81
62436;BME280;48480;50.252;18.848;2023-02-12T06:50:17;100395.02;;;4.53;81.66
62436;BME280;48480;50.252;18.848;2023-02-12T06:52:43;100398.70;;;4.53;81.62
62436;BME280;48480;50.252;18.848;2023-02-12T06:55:09;100401.98;;;4.52;81.42
62436;BME280;48480;50.252;18.848;2023-02-12T06:57:35;100399.98;;;4.44;81.11
62436;BME280;48480;50.252;18.848;2023-02-12T07:00:01;100403.36;;;4.33;80.63
62436;BME280;48480;50.252;18.848;2023-02-12T07:02:27;100415.37;;;4.25;80.37
62436;BME280;48480;50.252;18.848;2023-02-12T07:04:52;100419.98;;;4.14;80.43
62436;BME280;48480;50.252;18.848;2023-02-12T07:07:19;100424.02;;;4.08;80.52
62436;BME280;48480;50.252;18.848;2023-02-12T07:09:45;100427.10;;;4.03;80.45
62436;BME280;48480;50.252;18.848;2023-02-12T07:12:11;100421.34;;;4.00;80.61
62436;BME280;48480;50.252;18.848;2023-02-12T07:14:36;100422.45;;;4.00;80.42
62436;BME280;48480;50.252;18.848;2023-02-12T07:17:05;100428.38;;;3.99;80.38
62436;BME280;48480;50.252;18.848;2023-02-12T07:19:35;100434.73;;;4.01;80.29
62436;BME280;48480;50.252;18.848;2023-02-12T07:22:03;100421.05;;;3.90;80.33
62436;BME280;48480;50.252;18.848;2023-02-12T07:24:30;100439.05;;;4.01;80.25
62436;BME280;48480;50.252;18.848;2023-02-12T07:27:56;100441.89;;;4.04;80.27
62436;BME280;48480;50.252;18.848;2023-02-12T07:30:22;100433.53;;;3.99;80.44
62436;BME280;48480;50.252;18.848;2023-02-12T07:32:47;100447.95;;;4.12;80.34
62436;BME280;48480;50.252;18.848;2023-02-12T07:35:15;100453.21;;;4.19;80.04
62436;BME280;48480;50.252;18.848;2023-02-12T07:37:41;100457.33;;;4.24;79.85
62436;BME280;48480;50.252;18.848;2023-02-12T07:40:14;100459.56;;;4.40;79.94
62436;BME280;48480;50.252;18.848;2023-02-12T07:42:54;100464.55;;;4.61;79.75
62436;BME280;48480;50.252;18.848;2023-02-12T07:45:20;100466.80;;;4.83;78.71
62436;BME280;48480;50.252;18.848;2023-02-12T07:47:46;100470.18;;;5.08;77.48
62436;BME280;48480;50.252;18.848;2023-02-12T07:50:12;100473.65;;;5.38;76.09
62436;BME280;48480;50.252;18.848;2023-02-12T07:52:37;100478.98;;;5.59;75.13
62436;BME280;48480;50.252;18.848;2023-02-12T07:55:03;100451.67;;;5.74;74.67
62436;BME280;48480;50.252;18.848;2023-02-12T07:57:29;100481.57;;;6.16;72.09
62436;BME280;48480;50.252;18.848;2023-02-12T07:59:54;100482.63;;;6.32;70.74
62436;BME280;48480;50.252;18.848;2023-02-12T08:02:20;100483.70;;;6.55;70.91
62436;BME280;48480;50.252;18.848;2023-02-12T08:04:49;100484.20;;;6.87;70.39
62436;BME280;48480;50.252;18.848;2023-02-12T08:07:31;100437.91;;;6.92;68.79
62436;BME280;48480;50.252;18.848;2023-02-12T08:09:58;100470.92;;;7.27;66.68
62436;BME280;48480;50.252;18.848;2023-02-12T08:12:23;100490.41;;;7.31;65.53
62436;BME280;48480;50.252;18.848;2023-02-12T08:14:49;100497.67;;;7.36;65.64
62436;BME280;48480;50.252;18.848;2023-02-12T08:17:22;100505.20;;;7.45;65.62
62436;BME280;48480;50.252;18.848;2023-02-12T08:19:51;100505.90;;;7.26;64.51
62436;BME280;48480;50.252;18.848;2023-02-12T08:22:17;100512.86;;;6.96;64.92
62436;BME280;48480;50.252;18.848;2023-02-12T08:24:46;100521.07;;;6.90;66.07
62436;BME280;48480;50.252;18.848;2023-02-12T08:27:16;100526.41;;;6.85;65.99
62436;BME280;48480;50.252;18.848;2023-02-12T08:29:42;100513.64;;;6.74;65.97
62436;BME280;48480;50.252;18.848;2023-02-12T08:32:08;100526.14;;;6.66;65.86
62436;BME280;48480;50.252;18.848;2023-02-12T08:34:43;100525.52;;;6.53;66.06
62436;BME280;48480;50.252;18.848;2023-02-12T08:37:13;100526.34;;;6.38;65.06
62436;BME280;48480;50.252;18.848;2023-02-12T08:39:40;100530.70;;;6.13;65.31
62436;BME280;48480;50.252;18.848;2023-02-12T08:42:05;100529.41;;;5.93;64.88
62436;BME280;48480;50.252;18.848;2023-02-12T08:44:31;100531.81;;;5.82;65.77
62436;BME280;48480;50.252;18.848;2023-02-12T08:46:57;100532.16;;;5.85;66.54
62436;BME280;48480;50.252;18.848;2023-02-12T08:49:26;100530.94;;;5.88;66.26
62436;BME280;48480;50.252;18.848;2023-02-12T08:51:55;100534.33;;;5.90;65.82
62436;BME280;48480;50.252;18.848;2023-02-12T08:54:26;100535.01;;;5.89;66.32
62436;BME280;48480;50.252;18.848;2023-02-12T08:56:55;100544.66;;;5.96;66.83
62436;BME280;48480;50.252;18.848;2023-02-12T08:59:21;100549.48;;;5.91;66.58
62436;BME280;48480;50.252;18.848;2023-02-12T09:01:49;100554.53;;;5.92;67.09
62436;BME280;48480;50.252;18.848;2023-02-12T09:04:25;100556.62;;;5.93;66.96
62436;BME280;48480;50.252;18.848;2023-02-12T09:06:51;100559.14;;;5.82;66.01
62436;BME280;48480;50.252;18.848;2023-02-12T09:09:17;100558.45;;;5.65;66.03
62436;BME280;48480;50.252;18.848;2023-02-12T09:11:44;100554.20;;;5.45;66.28
62436;BME280;48480;50.252;18.848;2023-02-12T09:14:13;100561.50;;;5.34;66.68
62436;BME280;48480;50.252;18.848;2023-02-12T09:16:40;100564.41;;;5.23;66.65
62436;BME280;48480;50.252;18.848;2023-02-12T09:19:07;100569.39;;;5.13;67.17
62436;BME280;48480;50.252;18.848;2023-02-12T09:21:33;100571.49;;;5.10;67.84
62436;BME280;48480;50.252;18.848;2023-02-12T09:24:00;100570.73;;;5.08;67.78
62436;BME280;48480;50.252;18.848;2023-02-12T09:26:26;100577.99;;;5.06;67.82
62436;BME280;48480;50.252;18.848;2023-02-12T09:28:52;100580.98;;;4.98;67.06
62436;BME280;48480;50.252;18.848;2023-02-12T09:31:24;100582.54;;;4.89;67.17
62436;BME280;48480;50.252;18.848;2023-02-12T09:33:56;100582.96;;;4.87;67.76
62436;BME280;48480;50.252;18.848;2023-02-12T09:36:23;100587.61;;;4.83;67.01
62436;BME280;48480;50.252;18.848;2023-02-12T09:38:49;100592.01;;;4.81;67.03
62436;BME280;48480;50.252;18.848;2023-02-12T09:44:14;100588.90;;;5.05;68.10
62436;BME280;48480;50.252;18.848;2023-02-12T09:46:48;100591.88;;;5.49;67.60
62436;BME280;48480;50.252;18.848;2023-02-12T09:51:50;100592.96;;;6.17;66.36
62436;BME280;48480;50.252;18.848;2023-02-12T09:54:25;100596.15;;;6.23;65.10
62436;BME280;48480;50.252;18.848;2023-02-12T09:56:58;100600.70;;;6.24;64.94
62436;BME280;48480;50.252;18.848;2023-02-12T09:59:39;100605.20;;;6.20;65.01
62436;BME280;48480;50.252;18.848;2023-02-12T10:02:19;100602.45;;;6.12;64.60
62436;BME280;48480;50.252;18.848;2023-02-12T10:07:59;100604.38;;;5.95;64.36
62436;BME280;48480;50.252;18.848;2023-02-12T10:27:12;100621.15;;;5.71;64.49
62436;BME280;48480;50.252;18.848;2023-02-12T10:29:40;100626.29;;;5.65;64.77
62436;BME280;48480;50.252;18.848;2023-02-12T10:34:46;100627.98;;;5.49;65.35
62436;BME280;48480;50.252;18.848;2023-02-12T10:40:19;100626.52;;;5.39;65.52
62436;BME280;48480;50.252;18.848;2023-02-12T10:42:52;100619.31;;;5.31;65.67
62436;BME280;48480;50.252;18.848;2023-02-12T10:45:21;100634.16;;;5.35;65.60
62436;BME280;48480;50.252;18.848;2023-02-12T10:47:53;100636.52;;;5.35;65.95
62436;BME280;48480;50.252;18.848;2023-02-12T10:58:41;100633.24;;;5.38;66.51
62436;BME280;48480;50.252;18.848;2023-02-12T11:03:58;100637.86;;;5.36;66.39
62436;BME280;48480;50.252;18.848;2023-02-12T11:06:27;100633.65;;;5.42;66.69
62436;BME280;48480;50.252;18.848;2023-02-12T11:08:57;100633.88;;;5.51;66.68
62436;BME280;48480;50.252;18.848;2023-02-12T11:11:27;100633.09;;;5.55;66.70
62436;BME280;48480;50.252;18.848;2023-02-12T11:13:58;100626.41;;;5.59;66.45
62436;BME280;48480;50.252;18.848;2023-02-12T11:16:35;100624.38;;;5.54;66.26
62436;BME280;48480;50.252;18.848;2023-02-12T11:19:06;100629.77;;;5.53;66.11
62436;BME280;48480;50.252;18.848;2023-02-12T11:21:34;100629.14;;;5.51;65.84
62436;BME280;48480;50.252;18.848;2023-02-12T11:27:21;100634.77;;;5.44;66.36
62436;BME280;48480;50.252;18.848;2023-02-12T11:29:45;100630.40;;;5.40;66.28
62436;BME280;48480;50.252;18.848;2023-02-12T11:32:19;100626.04;;;5.42;66.72
62436;BME280;48480;50.252;18.848;2023-02-12T11:35:16;100622.64;;;5.44;66.60
62436;BME280;48480;50.252;18.848;2023-02-12T11:37:52;100624.48;;;5.48;66.98
62436;BME280;48480;50.252;18.848;2023-02-12T11:42:50;100617.95;;;5.53;66.96
62436;BME280;48480;50.252;18.848;2023-02-12T11:45:19;100621.09;;;5.57;67.16
62436;BME280;48480;50.252;18.848;2023-02-12T11:50:33;100621.05;;;5.90;67.01
62436;BME280;48480;50.252;18.848;2023-02-12T11:53:03;100619.19;;;5.95;66.38
62436;BME280;48480;50.252;18.848;2023-02-12T11:55:39;100609.66;;;5.87;66.26
62436;BME280;48480;50.252;18.848;2023-02-12T12:00:45;100616.95;;;5.92;66.59
62436;BME280;48480;50.252;18.848;2023-02-12T12:03:15;100618.16;;;5.95;66.33
62436;BME280;48480;50.252;18.848;2023-02-12T12:05:56;100618.13;;;5.94;66.64
62436;BME280;48480;50.252;18.848;2023-02-12T12:08:30;100618.17;;;5.99;66.54
62436;BME280;48480;50.252;18.848;2023-02-12T12:13:49;100615.35;;;6.18;66.56
62436;BME280;48480;50.252;18.848;2023-02-12T12:16:24;100613.31;;;6.28;66.34
62436;BME280;48480;50.252;18.848;2023-02-12T12:19:24;100611.48;;;6.35;66.14
62436;BME280;48480;50.252;18.848;2023-02-12T12:22:15;100601.80;;;6.25;65.65
62436;BME280;48480;50.252;18.848;2023-02-12T12:25:03;100618.96;;;6.35;65.66
62436;BME280;48480;50.252;18.848;2023-02-12T12:30:47;100620.39;;;6.40;65.84
62436;BME280;48480;50.252;18.848;2023-02-12T12:42:13;100619.41;;;6.46;65.44
62436;BME280;48480;50.252;18.848;2023-02-12T12:45:04;100623.26;;;6.47;65.39
62436;BME280;48480;50.252;18.848;2023-02-12T13:05:07;100632.27;;;6.14;65.51
62436;BME280;48480;50.252;18.848;2023-02-12T13:10:52;100623.03;;;6.19;66.01
62436;BME280;48480;50.252;18.848;2023-02-12T13:21:39;100620.48;;;6.32;66.09
62436;BME280;48480;50.252;18.848;2023-02-12T13:24:37;100619.27;;;6.38;66.13
62436;BME280;48480;50.252;18.848;2023-02-12T13:27:20;100619.55;;;6.41;66.07
62436;BME280;48480;50.252;18.848;2023-02-12T13:30:06;100617.75;;;6.49;66.06
62436;BME280;48480;50.252;18.848;2023-02-12T13:33:02;100618.41;;;6.53;65.96
62436;BME280;48480;50.252;18.848;2023-02-12T13:35:32;100622.05;;;6.58;65.68
62436;BME280;48480;50.252;18.848;2023-02-12T13:38:00;100624.98;;;6.59;65.72
62436;BME280;48480;50.252;18.848;2023-02-12T13:40:46;100625.75;;;6.68;65.97
62436;BME280;48480;50.252;18.848;2023-02-12T13:43:31;100622.08;;;6.79;65.81
62436;BME280;48480;50.252;18.848;2023-02-12T13:54:24;100627.74;;;6.91;65.16
62436;BME280;48480;50.252;18.848;2023-02-12T13:57:02;100625.17;;;6.98;65.23
62436;BME280;48480;50.252;18.848;2023-02-12T14:01:59;100628.02;;;7.09;64.56
62436;BME280;48480;50.252;18.848;2023-02-12T14:04:32;100629.34;;;7.16;64.25
62436;BME280;48480;50.252;18.848;2023-02-12T14:07:09;100630.32;;;7.17;64.10
62436;BME280;48480;50.252;18.848;2023-02-12T14:09:40;100633.00;;;7.17;64.11
62436;BME280;48480;50.252;18.848;2023-02-12T14:27:57;100639.52;;;6.81;63.97
62436;BME280;48480;50.252;18.848;2023-02-12T14:30:38;100642.89;;;6.76;64.18
62436;BME280;48480;50.252;18.848;2023-02-12T14:35:33;100640.21;;;6.71;64.28
62436;BME280;48480;50.252;18.848;2023-02-12T14:40:50;100630.70;;;6.64;64.49
62436;BME280;48480;50.252;18.848;2023-02-12T14:43:37;100629.31;;;6.56;64.65
62436;BME280;48480;50.252;18.848;2023-02-12T14:48:51;100630.38;;;6.41;65.01
62436;BME280;48480;50.252;18.848;2023-02-12T14:53:52;100631.77;;;6.39;65.25
62436;BME280;48480;50.252;18.848;2023-02-12T14:56:23;100633.39;;;6.39;65.42
62436;BME280;48480;50.252;18.848;2023-02-12T14:58:52;100635.73;;;6.39;65.39
62436;BME280;48480;50.252;18.848;2023-02-12T15:01:32;100633.20;;;6.41;65.53
62436;BME280;48480;50.252;18.848;2023-02-12T15:04:45;100634.39;;;6.39;65.48
62436;BME280;48480;50.252;18.848;2023-02-12T15:07:09;100639.05;;;6.38;65.77
62436;BME280;48480;50.252;18.848;2023-02-12T15:09:49;100636.69;;;6.34;65.65
62436;BME280;48480;50.252;18.848;2023-02-12T15:15:10;100640.33;;;6.20;65.89
62436;BME280;48480;50.252;18.848;2023-02-12T15:17:40;100617.98;;;5.96;66.17
62436;BME280;48480;50.252;18.848;2023-02-12T15:20:21;100646.45;;;6.10;66.17
62436;BME280;48480;50.252;18.848;2023-02-12T15:22:48;100639.70;;;6.06;66.34
62436;BME280;48480;50.252;18.848;2023-02-12T15:27:48;100640.77;;;5.98;66.50
62436;BME280;48480;50.252;18.848;2023-02-12T15:30:18;100640.08;;;5.92;66.72
62436;BME280;48480;50.252;18.848;2023-02-12T15:32:46;100639.89;;;5.88;66.77
62436;BME280;48480;50.252;18.848;2023-02-12T15:35:31;100642.59;;;5.83;66.84
62436;BME280;48480;50.252;18.848;2023-02-12T15:37:58;100647.36;;;5.75;66.96
62436;BME280;48480;50.252;18.848;2023-02-12T15:40:27;100652.79;;;5.68;67.12
62436;BME280;48480;50.252;18.848;2023-02-12T15:43:01;100653.11;;;5.60;67.28
62436;BME280;48480;50.252;18.848;2023-02-12T15:45:30;100630.80;;;5.38;67.40
62436;BME280;48480;50.252;18.848;2023-02-12T15:50:32;100650.00;;;5.30;67.80
62436;BME280;48480;50.252;18.848;2023-02-12T15:52:58;100646.77;;;5.18;67.88
62436;BME280;48480;50.252;18.848;2023-02-12T15:55:27;100647.84;;;5.08;68.11
62436;BME280;48480;50.252;18.848;2023-02-12T15:57:59;100636.77;;;4.94;68.34
62436;BME280;48480;50.252;18.848;2023-02-12T16:02:54;100640.89;;;4.75;68.82
62436;BME280;48480;50.252;18.848;2023-02-12T16:05:21;100640.80;;;4.68;69.03
62436;BME280;48480;50.252;18.848;2023-02-12T16:07:48;100641.84;;;4.60;69.30
62436;BME280;48480;50.252;18.848;2023-02-12T16:10:18;100630.77;;;4.41;69.53
62436;BME280;48480;50.252;18.848;2023-02-12T16:12:44;100648.21;;;4.42;69.55
62436;BME280;48480;50.252;18.848;2023-02-12T16:15:27;100649.79;;;4.36;69.70
62436;BME280;48480;50.252;18.848;2023-02-12T16:17:55;100651.91;;;4.30;69.75